KJCT/JCT METAR and TAF weather

Enter ICAO airport designator
Station Type Date Time Source
KJCT METAR 2019/08/26 06:51 UTC NOAA

KJCT 260651Z AUTO 20003KT 10SM CLR 29/21 A2983 RMK AO2 SLP059 T02890211 $


Station Type Date Time Source
KJCT Decoded METAR 2019/08/26 06:51 UTC NOAA

Station name not available
Aug 26, 2019 - 02:51 AM EDT / 2019.08.26 0651 UTC
Wind: from the SSW (200 degrees) at 3 MPH (3 KT):0
Visibility: 10 mile(s):0
Sky conditions: clear
Temperature: 84.0 F (28.9 C)
Dew Point: 70.0 F (21.1 C)
Relative Humidity: 62%
Pressure (altimeter): 29.83 in. Hg (1010 hPa)
ob: KJCT 260651Z AUTO 20003KT 10SM CLR 29/21 A2983 RMK AO2 SLP059 T02890211
cycle: 7

Station Type Date Time Source
KJCT TAF 2019/08/26 06:22 UTC NOAA

TAF KJCT 260520Z 2606/2706 19007KT P6SM SKC
FM261600 19010G17KT P6SM SKC

Example: see airport list